sensor_id;sensor_type;location;lat;lon;timestamp;P1;durP1;ratioP1;P2;durP2;ratioP2
52458;SDS011;38372;52.902;6.024;2022-11-06T00:01:10;7.72;;;5.95;;
52458;SDS011;38372;52.902;6.024;2022-11-06T00:03:38;11.95;;;6.18;;
52458;SDS011;38372;52.902;6.024;2022-11-06T00:06:07;11.88;;;5.47;;
52458;SDS011;38372;52.902;6.024;2022-11-06T00:08:52;15.88;;;5.53;;
52458;SDS011;38372;52.902;6.024;2022-11-06T00:11:19;12.80;;;6.38;;
52458;SDS011;38372;52.902;6.024;2022-11-06T00:13:44;13.57;;;7.00;;
52458;SDS011;38372;52.902;6.024;2022-11-06T00:16:16;12.27;;;6.10;;
52458;SDS011;38372;52.902;6.024;2022-11-06T00:18:42;10.70;;;5.28;;
52458;SDS011;38372;52.902;6.024;2022-11-06T00:21:09;13.25;;;6.20;;
52458;SDS011;38372;52.902;6.024;2022-11-06T00:23:43;12.23;;;6.07;;
52458;SDS011;38372;52.902;6.024;2022-11-06T00:26:10;9.93;;;5.65;;
52458;SDS011;38372;52.902;6.024;2022-11-06T00:28:40;10.13;;;5.63;;
52458;SDS011;38372;52.902;6.024;2022-11-06T00:31:09;9.40;;;6.00;;
52458;SDS011;38372;52.902;6.024;2022-11-06T00:33:37;11.20;;;6.18;;
52458;SDS011;38372;52.902;6.024;2022-11-06T00:36:04;13.25;;;6.20;;
52458;SDS011;38372;52.902;6.024;2022-11-06T00:38:31;13.43;;;7.28;;
52458;SDS011;38372;52.902;6.024;2022-11-06T00:41:00;15.25;;;6.65;;
52458;SDS011;38372;52.902;6.024;2022-11-06T00:43:30;12.68;;;6.43;;
52458;SDS011;38372;52.902;6.024;2022-11-06T00:46:04;10.90;;;4.85;;
52458;SDS011;38372;52.902;6.024;2022-11-06T00:48:31;10.73;;;6.47;;
52458;SDS011;38372;52.902;6.024;2022-11-06T00:51:01;9.45;;;5.85;;
52458;SDS011;38372;52.902;6.024;2022-11-06T00:53:28;12.30;;;6.53;;
52458;SDS011;38372;52.902;6.024;2022-11-06T00:55:54;9.98;;;5.90;;
52458;SDS011;38372;52.902;6.024;2022-11-06T00:58:19;13.02;;;6.35;;
52458;SDS011;38372;52.902;6.024;2022-11-06T01:00:45;12.77;;;6.30;;
52458;SDS011;38372;52.902;6.024;2022-11-06T01:03:11;15.15;;;7.70;;
52458;SDS011;38372;52.902;6.024;2022-11-06T01:05:36;12.73;;;6.43;;
52458;SDS011;38372;52.902;6.024;2022-11-06T01:08:02;13.48;;;6.63;;
52458;SDS011;38372;52.902;6.024;2022-11-06T01:10:28;11.80;;;6.38;;
52458;SDS011;38372;52.902;6.024;2022-11-06T01:12:54;10.85;;;6.70;;
52458;SDS011;38372;52.902;6.024;2022-11-06T01:15:19;14.25;;;8.32;;
52458;SDS011;38372;52.902;6.024;2022-11-06T01:17:45;13.07;;;7.00;;
52458;SDS011;38372;52.902;6.024;2022-11-06T01:20:11;13.00;;;7.78;;
52458;SDS011;38372;52.902;6.024;2022-11-06T01:22:36;15.68;;;7.50;;
52458;SDS011;38372;52.902;6.024;2022-11-06T01:25:02;13.60;;;7.70;;
52458;SDS011;38372;52.902;6.024;2022-11-06T01:27:28;15.55;;;7.32;;
52458;SDS011;38372;52.902;6.024;2022-11-06T01:29:54;12.32;;;7.93;;
52458;SDS011;38372;52.902;6.024;2022-11-06T01:32:20;17.23;;;8.70;;
52458;SDS011;38372;52.902;6.024;2022-11-06T01:34:47;13.30;;;7.78;;
52458;SDS011;38372;52.902;6.024;2022-11-06T01:37:14;18.27;;;9.52;;
52458;SDS011;38372;52.902;6.024;2022-11-06T01:39:40;17.67;;;9.27;;
52458;SDS011;38372;52.902;6.024;2022-11-06T01:42:05;14.20;;;8.23;;
52458;SDS011;38372;52.902;6.024;2022-11-06T01:47:03;16.95;;;9.05;;
52458;SDS011;38372;52.902;6.024;2022-11-06T01:49:42;17.98;;;9.57;;
52458;SDS011;38372;52.902;6.024;2022-11-06T01:52:09;16.58;;;9.40;;
52458;SDS011;38372;52.902;6.024;2022-11-06T01:54:37;24.95;;;10.45;;
52458;SDS011;38372;52.902;6.024;2022-11-06T01:57:06;13.40;;;7.70;;
52458;SDS011;38372;52.902;6.024;2022-11-06T01:59:34;15.32;;;9.80;;
52458;SDS011;38372;52.902;6.024;2022-11-06T02:02:02;15.70;;;10.30;;
52458;SDS011;38372;52.902;6.024;2022-11-06T02:04:36;23.48;;;10.55;;
52458;SDS011;38372;52.902;6.024;2022-11-06T02:07:05;18.52;;;9.90;;
52458;SDS011;38372;52.902;6.024;2022-11-06T02:09:32;15.85;;;9.57;;
52458;SDS011;38372;52.902;6.024;2022-11-06T02:12:12;18.02;;;11.00;;
52458;SDS011;38372;52.902;6.024;2022-11-06T02:20:56;21.63;;;12.85;;
52458;SDS011;38372;52.902;6.024;2022-11-06T02:31:12;23.83;;;12.27;;
52458;SDS011;38372;52.902;6.024;2022-11-06T02:33:48;15.57;;;10.50;;
52458;SDS011;38372;52.902;6.024;2022-11-06T02:36:20;18.50;;;12.15;;
52458;SDS011;38372;52.902;6.024;2022-11-06T02:38:55;20.45;;;11.18;;
52458;SDS011;38372;52.902;6.024;2022-11-06T02:41:27;25.83;;;12.45;;
52458;SDS011;38372;52.902;6.024;2022-11-06T02:43:58;20.05;;;12.43;;
52458;SDS011;38372;52.902;6.024;2022-11-06T02:49:06;18.98;;;11.02;;
52458;SDS011;38372;52.902;6.024;2022-11-06T02:51:37;14.50;;;10.38;;
52458;SDS011;38372;52.902;6.024;2022-11-06T02:54:07;20.83;;;12.55;;
52458;SDS011;38372;52.902;6.024;2022-11-06T02:56:36;19.83;;;12.32;;
52458;SDS011;38372;52.902;6.024;2022-11-06T03:02:02;24.40;;;12.50;;
52458;SDS011;38372;52.902;6.024;2022-11-06T03:04:36;20.38;;;11.45;;
52458;SDS011;38372;52.902;6.024;2022-11-06T03:07:25;21.83;;;13.38;;
52458;SDS011;38372;52.902;6.024;2022-11-06T03:09:52;24.00;;;12.15;;
52458;SDS011;38372;52.902;6.024;2022-11-06T03:12:24;20.95;;;11.90;;
52458;SDS011;38372;52.902;6.024;2022-11-06T03:14:58;19.10;;;10.73;;
52458;SDS011;38372;52.902;6.024;2022-11-06T03:22:57;18.40;;;11.80;;
52458;SDS011;38372;52.902;6.024;2022-11-06T03:25:29;16.15;;;10.38;;
52458;SDS011;38372;52.902;6.024;2022-11-06T03:30:39;18.70;;;11.77;;
52458;SDS011;38372;52.902;6.024;2022-11-06T03:33:35;18.20;;;11.20;;
52458;SDS011;38372;52.902;6.024;2022-11-06T03:36:16;16.80;;;10.15;;
52458;SDS011;38372;52.902;6.024;2022-11-06T03:39:09;20.55;;;10.73;;
52458;SDS011;38372;52.902;6.024;2022-11-06T03:44:12;18.92;;;10.65;;
52458;SDS011;38372;52.902;6.024;2022-11-06T03:46:42;20.67;;;10.10;;
52458;SDS011;38372;52.902;6.024;2022-11-06T03:49:13;15.93;;;9.63;;
52458;SDS011;38372;52.902;6.024;2022-11-06T03:51:50;16.50;;;9.55;;
52458;SDS011;38372;52.902;6.024;2022-11-06T03:55:07;16.63;;;10.55;;
52458;SDS011;38372;52.902;6.024;2022-11-06T03:57:12;15.90;;;10.02;;
52458;SDS011;38372;52.902;6.024;2022-11-06T03:59:46;15.50;;;9.98;;
52458;SDS011;38372;52.902;6.024;2022-11-06T04:02:16;22.80;;;10.40;;
52458;SDS011;38372;52.902;6.024;2022-11-06T04:04:52;15.45;;;9.45;;
52458;SDS011;38372;52.902;6.024;2022-11-06T04:07:22;17.95;;;8.60;;
52458;SDS011;38372;52.902;6.024;2022-11-06T04:09:58;16.15;;;9.48;;
52458;SDS011;38372;52.902;6.024;2022-11-06T04:12:45;23.02;;;11.65;;
52458;SDS011;38372;52.902;6.024;2022-11-06T04:15:34;17.58;;;9.30;;
52458;SDS011;38372;52.902;6.024;2022-11-06T04:18:17;15.00;;;9.90;;
52458;SDS011;38372;52.902;6.024;2022-11-06T04:32:25;15.35;;;8.73;;
52458;SDS011;38372;52.902;6.024;2022-11-06T04:37:59;14.02;;;7.90;;
52458;SDS011;38372;52.902;6.024;2022-11-06T04:40:42;14.57;;;9.23;;
52458;SDS011;38372;52.902;6.024;2022-11-06T04:43:22;13.05;;;8.20;;
52458;SDS011;38372;52.902;6.024;2022-11-06T04:46:09;13.38;;;8.25;;
52458;SDS011;38372;52.902;6.024;2022-11-06T04:48:40;15.30;;;7.75;;
52458;SDS011;38372;52.902;6.024;2022-11-06T04:51:07;12.60;;;7.85;;
52458;SDS011;38372;52.902;6.024;2022-11-06T04:53:35;13.32;;;7.10;;
52458;SDS011;38372;52.902;6.024;2022-11-06T04:56:05;11.05;;;7.70;;
52458;SDS011;38372;52.902;6.024;2022-11-06T04:58:34;13.45;;;9.20;;
52458;SDS011;38372;52.902;6.024;2022-11-06T05:01:00;17.48;;;8.93;;
52458;SDS011;38372;52.902;6.024;2022-11-06T05:03:26;12.63;;;8.63;;
52458;SDS011;38372;52.902;6.024;2022-11-06T05:05:52;15.98;;;8.13;;
52458;SDS011;38372;52.902;6.024;2022-11-06T05:08:18;12.30;;;7.40;;
52458;SDS011;38372;52.902;6.024;2022-11-06T05:10:45;12.85;;;8.82;;
52458;SDS011;38372;52.902;6.024;2022-11-06T05:13:11;22.23;;;8.55;;
52458;SDS011;38372;52.902;6.024;2022-11-06T05:15:38;18.08;;;8.27;;
52458;SDS011;38372;52.902;6.024;2022-11-06T05:18:04;20.88;;;9.13;;
52458;SDS011;38372;52.902;6.024;2022-11-06T05:20:31;14.43;;;8.45;;
52458;SDS011;38372;52.902;6.024;2022-11-06T05:22:57;12.93;;;8.30;;
52458;SDS011;38372;52.902;6.024;2022-11-06T05:25:25;15.80;;;8.73;;
52458;SDS011;38372;52.902;6.024;2022-11-06T05:27:51;18.00;;;8.60;;
52458;SDS011;38372;52.902;6.024;2022-11-06T05:30:17;13.80;;;8.45;;
52458;SDS011;38372;52.902;6.024;2022-11-06T05:32:43;17.02;;;9.63;;
52458;SDS011;38372;52.902;6.024;2022-11-06T05:35:09;16.63;;;9.23;;
52458;SDS011;38372;52.902;6.024;2022-11-06T05:37:34;14.77;;;7.88;;
52458;SDS011;38372;52.902;6.024;2022-11-06T05:40:00;15.05;;;8.80;;
52458;SDS011;38372;52.902;6.024;2022-11-06T05:42:26;18.48;;;9.27;;
52458;SDS011;38372;52.902;6.024;2022-11-06T05:44:51;18.50;;;9.05;;
52458;SDS011;38372;52.902;6.024;2022-11-06T05:47:17;15.13;;;8.23;;
52458;SDS011;38372;52.902;6.024;2022-11-06T05:49:43;13.18;;;8.10;;
52458;SDS011;38372;52.902;6.024;2022-11-06T05:52:09;17.52;;;9.00;;
52458;SDS011;38372;52.902;6.024;2022-11-06T05:54:34;20.42;;;9.10;;
52458;SDS011;38372;52.902;6.024;2022-11-06T05:57:00;16.52;;;7.88;;
52458;SDS011;38372;52.902;6.024;2022-11-06T05:59:26;18.15;;;8.75;;
52458;SDS011;38372;52.902;6.024;2022-11-06T06:01:52;11.95;;;6.85;;
52458;SDS011;38372;52.902;6.024;2022-11-06T06:04:17;15.77;;;7.50;;
52458;SDS011;38372;52.902;6.024;2022-11-06T06:06:43;15.82;;;6.38;;
52458;SDS011;38372;52.902;6.024;2022-11-06T06:09:09;10.85;;;7.25;;
52458;SDS011;38372;52.902;6.024;2022-11-06T06:11:35;13.75;;;6.75;;
52458;SDS011;38372;52.902;6.024;2022-11-06T06:14:00;11.20;;;6.55;;
52458;SDS011;38372;52.902;6.024;2022-11-06T06:16:26;14.52;;;7.30;;
52458;SDS011;38372;52.902;6.024;2022-11-06T06:18:52;18.88;;;7.32;;
52458;SDS011;38372;52.902;6.024;2022-11-06T06:21:18;12.52;;;6.68;;
52458;SDS011;38372;52.902;6.024;2022-11-06T06:23:44;15.45;;;6.82;;
52458;SDS011;38372;52.902;6.024;2022-11-06T06:26:10;12.65;;;5.97;;
52458;SDS011;38372;52.902;6.024;2022-11-06T06:28:36;11.60;;;6.22;;
52458;SDS011;38372;52.902;6.024;2022-11-06T06:31:05;16.95;;;6.32;;
52458;SDS011;38372;52.902;6.024;2022-11-06T06:33:31;7.75;;;5.07;;
52458;SDS011;38372;52.902;6.024;2022-11-06T06:36:01;11.63;;;6.32;;
52458;SDS011;38372;52.902;6.024;2022-11-06T06:38:27;11.77;;;5.45;;
52458;SDS011;38372;52.902;6.024;2022-11-06T06:40:53;14.00;;;5.97;;
52458;SDS011;38372;52.902;6.024;2022-11-06T06:43:19;11.32;;;5.55;;
52458;SDS011;38372;52.902;6.024;2022-11-06T06:45:44;12.00;;;5.57;;
52458;SDS011;38372;52.902;6.024;2022-11-06T06:48:10;12.95;;;5.97;;
52458;SDS011;38372;52.902;6.024;2022-11-06T06:50:36;15.73;;;5.47;;
52458;SDS011;38372;52.902;6.024;2022-11-06T06:53:02;14.70;;;5.15;;
52458;SDS011;38372;52.902;6.024;2022-11-06T06:55:28;13.93;;;5.30;;
52458;SDS011;38372;52.902;6.024;2022-11-06T06:57:54;11.57;;;5.65;;
52458;SDS011;38372;52.902;6.024;2022-11-06T07:00:21;12.60;;;6.10;;
52458;SDS011;38372;52.902;6.024;2022-11-06T07:02:47;9.38;;;5.13;;
52458;SDS011;38372;52.902;6.024;2022-11-06T07:05:12;10.65;;;5.15;;
52458;SDS011;38372;52.902;6.024;2022-11-06T07:07:38;10.40;;;4.95;;
52458;SDS011;38372;52.902;6.024;2022-11-06T07:10:04;15.98;;;6.55;;
52458;SDS011;38372;52.902;6.024;2022-11-06T07:12:30;10.77;;;5.57;;
52458;SDS011;38372;52.902;6.024;2022-11-06T07:14:56;11.38;;;5.53;;
52458;SDS011;38372;52.902;6.024;2022-11-06T07:17:21;9.80;;;5.43;;
52458;SDS011;38372;52.902;6.024;2022-11-06T07:19:47;13.80;;;5.30;;
52458;SDS011;38372;52.902;6.024;2022-11-06T07:22:13;12.27;;;5.20;;
52458;SDS011;38372;52.902;6.024;2022-11-06T07:24:38;12.88;;;5.95;;
52458;SDS011;38372;52.902;6.024;2022-11-06T07:27:04;9.75;;;5.28;;
52458;SDS011;38372;52.902;6.024;2022-11-06T07:29:30;15.73;;;5.55;;
52458;SDS011;38372;52.902;6.024;2022-11-06T07:31:55;14.55;;;5.95;;
52458;SDS011;38372;52.902;6.024;2022-11-06T07:34:21;14.75;;;6.63;;
52458;SDS011;38372;52.902;6.024;2022-11-06T07:36:47;9.98;;;4.88;;
52458;SDS011;38372;52.902;6.024;2022-11-06T07:39:13;14.48;;;5.75;;
52458;SDS011;38372;52.902;6.024;2022-11-06T07:41:38;11.15;;;5.60;;
52458;SDS011;38372;52.902;6.024;2022-11-06T07:44:04;10.10;;;4.40;;
52458;SDS011;38372;52.902;6.024;2022-11-06T07:46:30;13.52;;;5.10;;
52458;SDS011;38372;52.902;6.024;2022-11-06T07:48:56;12.68;;;5.43;;
52458;SDS011;38372;52.902;6.024;2022-11-06T07:51:21;8.32;;;4.57;;
52458;SDS011;38372;52.902;6.024;2022-11-06T07:53:47;12.55;;;5.57;;
52458;SDS011;38372;52.902;6.024;2022-11-06T07:56:13;10.07;;;4.43;;
52458;SDS011;38372;52.902;6.024;2022-11-06T07:58:39;11.35;;;4.78;;
52458;SDS011;38372;52.902;6.024;2022-11-06T08:01:04;11.75;;;5.13;;
52458;SDS011;38372;52.902;6.024;2022-11-06T08:03:30;12.23;;;4.85;;
52458;SDS011;38372;52.902;6.024;2022-11-06T08:05:57;10.95;;;4.40;;
52458;SDS011;38372;52.902;6.024;2022-11-06T08:08:23;10.48;;;4.00;;
52458;SDS011;38372;52.902;6.024;2022-11-06T08:10:49;10.93;;;3.58;;
52458;SDS011;38372;52.902;6.024;2022-11-06T08:13:17;6.85;;;3.50;;
52458;SDS011;38372;52.902;6.024;2022-11-06T08:15:43;11.60;;;4.15;;
52458;SDS011;38372;52.902;6.024;2022-11-06T08:18:09;8.88;;;3.67;;
52458;SDS011;38372;52.902;6.024;2022-11-06T08:20:36;6.95;;;3.50;;
52458;SDS011;38372;52.902;6.024;2022-11-06T08:23:04;7.00;;;3.40;;
52458;SDS011;38372;52.902;6.024;2022-11-06T08:25:32;11.75;;;4.68;;
52458;SDS011;38372;52.902;6.024;2022-11-06T08:28:00;11.18;;;3.40;;
52458;SDS011;38372;52.902;6.024;2022-11-06T08:30:27;7.75;;;3.03;;
52458;SDS011;38372;52.902;6.024;2022-11-06T08:32:54;11.30;;;3.63;;
52458;SDS011;38372;52.902;6.024;2022-11-06T08:35:24;8.90;;;3.05;;
52458;SDS011;38372;52.902;6.024;2022-11-06T08:37:49;8.75;;;3.25;;
52458;SDS011;38372;52.902;6.024;2022-11-06T08:40:15;7.25;;;3.13;;
52458;SDS011;38372;52.902;6.024;2022-11-06T08:42:41;9.77;;;3.05;;
52458;SDS011;38372;52.902;6.024;2022-11-06T08:45:07;8.32;;;3.35;;
52458;SDS011;38372;52.902;6.024;2022-11-06T08:47:33;7.63;;;2.88;;
52458;SDS011;38372;52.902;6.024;2022-11-06T08:49:59;6.82;;;2.70;;
52458;SDS011;38372;52.902;6.024;2022-11-06T08:52:24;6.30;;;2.67;;
52458;SDS011;38372;52.902;6.024;2022-11-06T08:54:50;6.57;;;2.70;;
52458;SDS011;38372;52.902;6.024;2022-11-06T08:57:16;6.10;;;2.63;;
52458;SDS011;38372;52.902;6.024;2022-11-06T08:59:42;9.02;;;2.63;;
52458;SDS011;38372;52.902;6.024;2022-11-06T09:02:11;8.00;;;2.97;;
52458;SDS011;38372;52.902;6.024;2022-11-06T09:04:38;7.70;;;3.17;;
52458;SDS011;38372;52.902;6.024;2022-11-06T09:07:04;6.28;;;2.70;;
52458;SDS011;38372;52.902;6.024;2022-11-06T09:09:30;8.82;;;3.10;;
52458;SDS011;38372;52.902;6.024;2022-11-06T09:11:58;10.25;;;2.95;;
52458;SDS011;38372;52.902;6.024;2022-11-06T09:14:25;10.85;;;2.90;;
52458;SDS011;38372;52.902;6.024;2022-11-06T09:16:51;5.65;;;2.53;;
52458;SDS011;38372;52.902;6.024;2022-11-06T09:19:18;7.88;;;2.95;;
52458;SDS011;38372;52.902;6.024;2022-11-06T09:21:44;4.97;;;2.30;;
52458;SDS011;38372;52.902;6.024;2022-11-06T09:24:10;9.10;;;2.55;;
52458;SDS011;38372;52.902;6.024;2022-11-06T09:26:36;11.63;;;2.20;;
52458;SDS011;38372;52.902;6.024;2022-11-06T09:29:02;7.32;;;2.20;;
52458;SDS011;38372;52.902;6.024;2022-11-06T09:31:32;9.00;;;2.60;;
52458;SDS011;38372;52.902;6.024;2022-11-06T09:33:58;9.45;;;2.67;;
52458;SDS011;38372;52.902;6.024;2022-11-06T09:36:24;5.85;;;1.90;;
52458;SDS011;38372;52.902;6.024;2022-11-06T09:38:50;7.35;;;2.67;;
52458;SDS011;38372;52.902;6.024;2022-11-06T09:41:26;5.53;;;2.33;;
52458;SDS011;38372;52.902;6.024;2022-11-06T09:46:48;4.20;;;2.08;;
52458;SDS011;38372;52.902;6.024;2022-11-06T09:49:23;7.80;;;2.47;;
52458;SDS011;38372;52.902;6.024;2022-11-06T09:52:01;10.63;;;2.65;;
52458;SDS011;38372;52.902;6.024;2022-11-06T09:54:43;7.50;;;2.80;;
52458;SDS011;38372;52.902;6.024;2022-11-06T09:57:20;6.85;;;2.17;;
52458;SDS011;38372;52.902;6.024;2022-11-06T09:59:53;6.65;;;2.45;;
52458;SDS011;38372;52.902;6.024;2022-11-06T10:02:30;8.20;;;2.47;;
52458;SDS011;38372;52.902;6.024;2022-11-06T10:07:45;5.05;;;2.25;;
52458;SDS011;38372;52.902;6.024;2022-11-06T10:10:17;5.80;;;2.00;;
52458;SDS011;38372;52.902;6.024;2022-11-06T10:13:32;5.35;;;2.28;;
52458;SDS011;38372;52.902;6.024;2022-11-06T10:15:43;4.03;;;2.45;;
52458;SDS011;38372;52.902;6.024;2022-11-06T10:18:23;9.82;;;2.72;;
52458;SDS011;38372;52.902;6.024;2022-11-06T10:21:11;6.25;;;2.22;;
52458;SDS011;38372;52.902;6.024;2022-11-06T10:26:14;5.82;;;1.92;;
52458;SDS011;38372;52.902;6.024;2022-11-06T10:36:33;6.60;;;2.35;;
52458;SDS011;38372;52.902;6.024;2022-11-06T10:39:08;8.15;;;2.38;;
52458;SDS011;38372;52.902;6.024;2022-11-06T10:41:41;7.47;;;2.33;;
52458;SDS011;38372;52.902;6.024;2022-11-06T10:46:40;6.00;;;1.98;;
52458;SDS011;38372;52.902;6.024;2022-11-06T10:49:12;8.50;;;2.47;;
52458;SDS011;38372;52.902;6.024;2022-11-06T11:00:23;3.72;;;2.03;;
52458;SDS011;38372;52.902;6.024;2022-11-06T11:02:57;5.70;;;1.98;;
52458;SDS011;38372;52.902;6.024;2022-11-06T11:05:26;4.18;;;2.13;;
52458;SDS011;38372;52.902;6.024;2022-11-06T11:07:58;7.68;;;2.50;;
52458;SDS011;38372;52.902;6.024;2022-11-06T11:12:57;8.50;;;2.40;;
52458;SDS011;38372;52.902;6.024;2022-11-06T11:15:48;4.78;;;2.00;;
52458;SDS011;38372;52.902;6.024;2022-11-06T11:20:44;7.15;;;2.45;;
52458;SDS011;38372;52.902;6.024;2022-11-06T11:23:21;4.53;;;2.03;;
52458;SDS011;38372;52.902;6.024;2022-11-06T11:25:53;5.90;;;2.20;;
52458;SDS011;38372;52.902;6.024;2022-11-06T11:28:27;6.63;;;1.80;;
52458;SDS011;38372;52.902;6.024;2022-11-06T11:30:59;3.60;;;1.50;;
52458;SDS011;38372;52.902;6.024;2022-11-06T11:33:34;5.18;;;2.08;;
52458;SDS011;38372;52.902;6.024;2022-11-06T11:36:00;7.57;;;1.85;;
52458;SDS011;38372;52.902;6.024;2022-11-06T11:38:30;3.95;;;1.73;;
52458;SDS011;38372;52.902;6.024;2022-11-06T11:43:43;4.28;;;1.52;;
52458;SDS011;38372;52.902;6.024;2022-11-06T11:46:30;5.60;;;2.00;;
52458;SDS011;38372;52.902;6.024;2022-11-06T11:48:57;6.03;;;1.52;;
52458;SDS011;38372;52.902;6.024;2022-11-06T11:51:42;6.80;;;1.63;;
52458;SDS011;38372;52.902;6.024;2022-11-06T11:59:18;8.80;;;2.38;;
52458;SDS011;38372;52.902;6.024;2022-11-06T12:01:47;3.90;;;1.48;;
52458;SDS011;38372;52.902;6.024;2022-11-06T12:06:54;5.25;;;1.60;;
52458;SDS011;38372;52.902;6.024;2022-11-06T12:09:25;5.03;;;1.58;;
52458;SDS011;38372;52.902;6.024;2022-11-06T12:11:53;3.05;;;1.10;;
52458;SDS011;38372;52.902;6.024;2022-11-06T12:16:56;5.22;;;1.48;;
52458;SDS011;38372;52.902;6.024;2022-11-06T12:19:30;3.85;;;1.33;;
52458;SDS011;38372;52.902;6.024;2022-11-06T12:21:59;8.23;;;1.80;;
52458;SDS011;38372;52.902;6.024;2022-11-06T12:24:34;5.22;;;1.92;;
52458;SDS011;38372;52.902;6.024;2022-11-06T12:27:27;4.85;;;1.48;;
52458;SDS011;38372;52.902;6.024;2022-11-06T12:30:01;6.85;;;1.48;;
52458;SDS011;38372;52.902;6.024;2022-11-06T12:32:36;8.13;;;2.22;;
52458;SDS011;38372;52.902;6.024;2022-11-06T12:37:57;9.65;;;2.05;;
52458;SDS011;38372;52.902;6.024;2022-11-06T12:40:30;5.78;;;1.70;;
52458;SDS011;38372;52.902;6.024;2022-11-06T12:45:46;6.03;;;1.80;;
52458;SDS011;38372;52.902;6.024;2022-11-06T12:48:57;6.43;;;2.10;;
52458;SDS011;38372;52.902;6.024;2022-11-06T13:02:28;5.25;;;1.50;;
52458;SDS011;38372;52.902;6.024;2022-11-06T13:07:44;5.32;;;2.13;;
52458;SDS011;38372;52.902;6.024;2022-11-06T13:10:29;5.95;;;1.85;;
52458;SDS011;38372;52.902;6.024;2022-11-06T13:18:14;6.35;;;1.80;;
52458;SDS011;38372;52.902;6.024;2022-11-06T13:23:38;6.25;;;2.28;;
52458;SDS011;38372;52.902;6.024;2022-11-06T13:28:59;4.72;;;1.83;;
52458;SDS011;38372;52.902;6.024;2022-11-06T13:31:38;7.32;;;1.98;;
52458;SDS011;38372;52.902;6.024;2022-11-06T13:34:07;8.23;;;2.72;;
52458;SDS011;38372;52.902;6.024;2022-11-06T13:36:48;4.72;;;1.73;;
52458;SDS011;38372;52.902;6.024;2022-11-06T13:39:30;4.40;;;1.67;;
52458;SDS011;38372;52.902;6.024;2022-11-06T13:42:12;5.43;;;1.90;;
52458;SDS011;38372;52.902;6.024;2022-11-06T13:44:53;4.13;;;1.52;;
52458;SDS011;38372;52.902;6.024;2022-11-06T13:47:26;5.70;;;1.70;;
52458;SDS011;38372;52.902;6.024;2022-11-06T13:50:15;5.72;;;1.67;;
52458;SDS011;38372;52.902;6.024;2022-11-06T13:52:56;5.07;;;1.67;;
52458;SDS011;38372;52.902;6.024;2022-11-06T14:04:07;4.90;;;1.83;;
52458;SDS011;38372;52.902;6.024;2022-11-06T14:06:43;5.95;;;1.60;;
52458;SDS011;38372;52.902;6.024;2022-11-06T14:09:17;7.05;;;1.80;;
52458;SDS011;38372;52.902;6.024;2022-11-06T14:12:00;6.28;;;2.05;;
52458;SDS011;38372;52.902;6.024;2022-11-06T14:14:31;5.82;;;1.70;;
52458;SDS011;38372;52.902;6.024;2022-11-06T14:19:58;6.90;;;1.77;;
52458;SDS011;38372;52.902;6.024;2022-11-06T14:22:31;8.25;;;2.10;;
52458;SDS011;38372;52.902;6.024;2022-11-06T14:32:53;4.35;;;1.65;;
52458;SDS011;38372;52.902;6.024;2022-11-06T14:40:34;4.50;;;1.30;;
52458;SDS011;38372;52.902;6.024;2022-11-06T14:45:54;5.07;;;1.48;;
52458;SDS011;38372;52.902;6.024;2022-11-06T14:48:39;3.17;;;1.02;;
52458;SDS011;38372;52.902;6.024;2022-11-06T14:51:11;3.50;;;1.20;;
52458;SDS011;38372;52.902;6.024;2022-11-06T14:53:50;3.85;;;1.40;;
52458;SDS011;38372;52.902;6.024;2022-11-06T14:56:22;5.38;;;1.45;;
52458;SDS011;38372;52.902;6.024;2022-11-06T14:59:01;4.13;;;1.40;;
52458;SDS011;38372;52.902;6.024;2022-11-06T15:01:33;6.45;;;1.80;;
52458;SDS011;38372;52.902;6.024;2022-11-06T15:04:14;1.48;;;1.00;;
52458;SDS011;38372;52.902;6.024;2022-11-06T15:06:43;7.43;;;1.58;;
52458;SDS011;38372;52.902;6.024;2022-11-06T15:16:41;8.07;;;1.77;;
52458;SDS011;38372;52.902;6.024;2022-11-06T15:19:28;4.22;;;1.50;;
52458;SDS011;38372;52.902;6.024;2022-11-06T15:25:33;7.40;;;2.00;;
52458;SDS011;38372;52.902;6.024;2022-11-06T15:27:41;6.40;;;1.30;;
52458;SDS011;38372;52.902;6.024;2022-11-06T15:30:12;5.20;;;1.42;;
52458;SDS011;38372;52.902;6.024;2022-11-06T15:32:41;4.85;;;1.35;;
52458;SDS011;38372;52.902;6.024;2022-11-06T15:35:12;3.58;;;1.60;;
52458;SDS011;38372;52.902;6.024;2022-11-06T15:38:06;4.50;;;1.48;;
52458;SDS011;38372;52.902;6.024;2022-11-06T15:40:38;7.47;;;2.38;;
52458;SDS011;38372;52.902;6.024;2022-11-06T15:45:39;4.43;;;1.80;;
52458;SDS011;38372;52.902;6.024;2022-11-06T15:48:05;7.70;;;2.50;;
52458;SDS011;38372;52.902;6.024;2022-11-06T15:50:44;4.93;;;1.70;;
52458;SDS011;38372;52.902;6.024;2022-11-06T15:53:16;5.53;;;1.95;;
52458;SDS011;38372;52.902;6.024;2022-11-06T15:58:28;4.45;;;1.75;;
52458;SDS011;38372;52.902;6.024;2022-11-06T16:01:03;3.35;;;1.50;;
52458;SDS011;38372;52.902;6.024;2022-11-06T16:03:31;8.32;;;1.60;;
52458;SDS011;38372;52.902;6.024;2022-11-06T16:06:08;6.35;;;1.45;;
52458;SDS011;38372;52.902;6.024;2022-11-06T16:08:34;8.38;;;2.35;;
52458;SDS011;38372;52.902;6.024;2022-11-06T16:11:02;6.00;;;1.77;;
52458;SDS011;38372;52.902;6.024;2022-11-06T16:13:28;5.43;;;1.60;;
52458;SDS011;38372;52.902;6.024;2022-11-06T16:16:01;10.52;;;2.33;;
52458;SDS011;38372;52.902;6.024;2022-11-06T16:21:10;8.93;;;2.03;;
52458;SDS011;38372;52.902;6.024;2022-11-06T16:23:40;4.68;;;2.13;;
52458;SDS011;38372;52.902;6.024;2022-11-06T16:26:11;4.93;;;1.98;;
52458;SDS011;38372;52.902;6.024;2022-11-06T16:28:45;3.40;;;2.10;;
52458;SDS011;38372;52.902;6.024;2022-11-06T16:31:16;7.57;;;2.30;;
52458;SDS011;38372;52.902;6.024;2022-11-06T16:33:56;5.65;;;2.22;;
52458;SDS011;38372;52.902;6.024;2022-11-06T16:36:24;6.93;;;2.00;;
52458;SDS011;38372;52.902;6.024;2022-11-06T16:38:51;9.00;;;1.75;;
52458;SDS011;38372;52.902;6.024;2022-11-06T16:41:18;6.05;;;1.55;;
52458;SDS011;38372;52.902;6.024;2022-11-06T16:49:39;2.83;;;1.20;;
52458;SDS011;38372;52.902;6.024;2022-11-06T16:55:22;5.85;;;2.15;;
52458;SDS011;38372;52.902;6.024;2022-11-06T17:02:52;4.05;;;1.10;;
52458;SDS011;38372;52.902;6.024;2022-11-06T17:05:24;5.97;;;1.60;;
52458;SDS011;38372;52.902;6.024;2022-11-06T17:10:38;9.05;;;1.25;;
52458;SDS011;38372;52.902;6.024;2022-11-06T17:18:22;5.93;;;1.40;;
52458;SDS011;38372;52.902;6.024;2022-11-06T17:20:56;4.70;;;1.15;;
52458;SDS011;38372;52.902;6.024;2022-11-06T17:23:26;3.17;;;1.48;;
52458;SDS011;38372;52.902;6.024;2022-11-06T17:25:57;4.18;;;1.15;;
52458;SDS011;38372;52.902;6.024;2022-11-06T17:28:27;3.22;;;1.33;;
52458;SDS011;38372;52.902;6.024;2022-11-06T17:30:53;3.38;;;1.35;;
52458;SDS011;38372;52.902;6.024;2022-11-06T17:37:00;5.65;;;0.98;;
52458;SDS011;38372;52.902;6.024;2022-11-06T17:39:26;1.52;;;1.25;;
52458;SDS011;38372;52.902;6.024;2022-11-06T17:41:51;2.75;;;0.80;;
52458;SDS011;38372;52.902;6.024;2022-11-06T17:44:18;4.28;;;1.35;;
52458;SDS011;38372;52.902;6.024;2022-11-06T17:46:45;2.85;;;1.35;;
52458;SDS011;38372;52.902;6.024;2022-11-06T17:49:12;4.57;;;1.77;;
52458;SDS011;38372;52.902;6.024;2022-11-06T17:51:39;3.90;;;1.25;;
52458;SDS011;38372;52.902;6.024;2022-11-06T17:54:26;3.53;;;1.38;;
52458;SDS011;38372;52.902;6.024;2022-11-06T17:56:54;3.28;;;1.30;;
52458;SDS011;38372;52.902;6.024;2022-11-06T17:59:22;2.63;;;1.40;;
52458;SDS011;38372;52.902;6.024;2022-11-06T18:01:51;3.25;;;1.30;;
52458;SDS011;38372;52.902;6.024;2022-11-06T18:04:18;3.00;;;1.45;;
52458;SDS011;38372;52.902;6.024;2022-11-06T18:06:45;5.32;;;1.77;;
52458;SDS011;38372;52.902;6.024;2022-11-06T18:09:12;3.88;;;1.42;;
52458;SDS011;38372;52.902;6.024;2022-11-06T18:11:39;3.47;;;1.60;;
52458;SDS011;38372;52.902;6.024;2022-11-06T18:14:05;3.60;;;1.35;;